PWSweather.com
Personal Weather Stations
Station Observations
IMAZOWIE6
WarszawaPL

WarszawaPL

Lat: 52.27957, Lon: 21.05489

Elevation: 100

Station Type: WS1080

http://stacjapogody.waw.pl/

High Low Average
Temperature 46.2°F7.9°C 33.6°F0.9°C 41.0°F5.0°C
Dew Point 24.6°F-4.1°C -4.4°F-20.2°C 12.6°F-10.8°C
Winds 1.4 mph 2.3 kmh Calm Calm Calm NCalm N
Wind Gusts 5.4 mph8.7 kmh -- 1.0 mph1.6 kmh
Humidity 43% 19% 32%
Pressure 29.64 in1003.7 mb 29.14 in986.8 mb -
Precipitation 0.00 in0.0 mm - -
Hour Temp Dew Point Humidity Winds Wind Gusts Pressure Precip Precip Rate Daily Precip Total
12:05 AM 33.6°F0.9°C -4.4°F-20.2°C 19% Calm Calm -- 29.64 in1003.7 mb 0.00 in0.0 mm 0.00 in0.0 mm 0.00 in0.0 mm
12:20 AM 33.8°F1.0°C -3.2°F-19.6°C 20% Calm Calm -- 29.63 in1003.4 mb 0.00 in0.0 mm 0.00 in0.0 mm 0.00 in0.0 mm
12:35 AM 33.8°F1.0°C -3.2°F-19.6°C 20% Calm Calm -- 29.62 in1003.0 mb 0.00 in0.0 mm 0.00 in0.0 mm 0.00 in0.0 mm
12:50 AM 33.8°F1.0°C -2.2°F-19.0°C 21% Calm Calm -- 29.61 in1002.7 mb 0.00 in0.0 mm 0.00 in0.0 mm 0.00 in0.0 mm
01:05 AM 34.0°F1.1°C -2.1°F-18.9°C 21% Calm Calm -- 29.61 in1002.7 mb 0.00 in0.0 mm 0.00 in0.0 mm 0.00 in0.0 mm
01:20 AM 34.2°F1.2°C -1.9°F-18.8°C 21% Calm Calm 0.6 mph1.0 kmh 29.60 in1002.4 mb 0.00 in0.0 mm 0.00 in0.0 mm 0.00 in0.0 mm
01:35 AM 34.5°F1.4°C -1.6°F-18.7°C 21% Calm Calm -- 29.60 in1002.4 mb 0.00 in0.0 mm 0.00 in0.0 mm 0.00 in0.0 mm
01:50 AM 34.3°F1.3°C -1.8°F-18.8°C 21% Calm Calm 0.6 mph1.0 kmh 29.59 in1002.0 mb 0.00 in0.0 mm 0.00 in0.0 mm 0.00 in0.0 mm
02:05 AM 34.5°F1.4°C -1.6°F-18.7°C 21% Calm Calm 0.6 mph1.0 kmh 29.59 in1002.0 mb 0.00 in0.0 mm 0.00 in0.0 mm 0.00 in0.0 mm
02:20 AM 34.5°F1.4°C -2.6°F-19.2°C 20% Calm Calm -- 29.58 in1001.7 mb 0.00 in0.0 mm 0.00 in0.0 mm 0.00 in0.0 mm
02:35 AM 34.5°F1.4°C -2.6°F-19.2°C 20% Calm Calm -- 29.58 in1001.7 mb 0.00 in0.0 mm 0.00 in0.0 mm 0.00 in0.0 mm
02:50 AM 34.5°F1.4°C -2.6°F-19.2°C 20% Calm Calm -- 29.57 in1001.4 mb 0.00 in0.0 mm 0.00 in0.0 mm 0.00 in0.0 mm
03:05 AM 34.5°F1.4°C -2.6°F-19.2°C 20% Calm Calm 1.4 mph2.3 kmh 29.56 in1001.0 mb 0.00 in0.0 mm 0.00 in0.0 mm 0.00 in0.0 mm
03:20 AM 34.5°F1.4°C -2.6°F-19.2°C 20% Calm Calm -- 29.55 in1000.7 mb 0.00 in0.0 mm 0.00 in0.0 mm 0.00 in0.0 mm
03:35 AM 34.7°F1.5°C -2.5°F-19.2°C 20% Calm Calm -- 29.55 in1000.7 mb 0.00 in0.0 mm 0.00 in0.0 mm 0.00 in0.0 mm
03:50 AM 34.7°F1.5°C -2.5°F-19.2°C 20% Calm Calm -- 29.54 in1000.3 mb 0.00 in0.0 mm 0.00 in0.0 mm 0.00 in0.0 mm
04:05 AM 34.9°F1.6°C -2.3°F-19.1°C 20% Calm Calm 4.0 mph6.4 kmh 29.53 in1000.0 mb 0.00 in0.0 mm 0.00 in0.0 mm 0.00 in0.0 mm
04:20 AM 34.9°F1.6°C -2.3°F-19.1°C 20% Calm Calm -- 29.52 in999.7 mb 0.00 in0.0 mm 0.00 in0.0 mm 0.00 in0.0 mm
04:35 AM 35.1°F1.7°C -1.2°F-18.4°C 21% Calm Calm 0.6 mph1.0 kmh 29.51 in999.3 mb 0.01 in0.3 mm 0.05 in1.3 mm 0.01 in0.3 mm
04:50 AM 35.2°F1.8°C -1.0°F-18.3°C 21% Calm Calm 1.4 mph2.3 kmh 29.50 in999.0 mb 0.02 in0.5 mm 0.05 in1.3 mm 0.02 in0.5 mm
05:05 AM 35.2°F1.8°C -1.0°F-18.3°C 21% Calm Calm 2.0 mph3.2 kmh 29.49 in998.6 mb 0.02 in0.5 mm 0.00 in0.0 mm 0.02 in0.5 mm
05:20 AM 35.2°F1.8°C -1.0°F-18.3°C 21% Calm Calm 0.6 mph1.0 kmh 29.49 in998.6 mb 0.01 in0.3 mm 0.00 in0.0 mm 0.02 in0.5 mm
05:35 AM 35.4°F1.9°C 0.1°F-17.7°C 22% Calm Calm 1.4 mph2.3 kmh 29.49 in998.6 mb 0.01 in0.3 mm 0.00 in0.0 mm 0.02 in0.5 mm
05:50 AM 35.4°F1.9°C 0.1°F-17.7°C 22% Calm Calm 1.4 mph2.3 kmh 29.49 in998.6 mb 0.01 in0.3 mm 0.00 in0.0 mm 0.02 in0.5 mm
06:05 AM 35.8°F2.1°C 1.4°F-17.0°C 23% Calm Calm -- 29.48 in998.3 mb 0.01 in0.3 mm 0.00 in0.0 mm 0.02 in0.5 mm
06:20 AM 35.8°F2.1°C 1.4°F-17.0°C 23% Calm Calm -- 29.47 in998.0 mb 0.00 in0.0 mm 0.00 in0.0 mm 0.02 in0.5 mm
06:35 AM 35.6°F2.0°C 2.1°F-16.6°C 24% Calm Calm -- 29.46 in997.6 mb 0.00 in0.0 mm 0.00 in0.0 mm 0.02 in0.5 mm
06:50 AM 35.8°F2.1°C 2.3°F-16.5°C 24% Calm Calm 2.0 mph3.2 kmh 29.47 in998.0 mb 0.01 in0.3 mm 0.05 in1.3 mm 0.04 in1.0 mm
07:05 AM 36.1°F2.3°C 3.5°F-15.8°C 25% Calm Calm -- 29.46 in997.6 mb 0.01 in0.3 mm 0.00 in0.0 mm 0.04 in1.0 mm
07:20 AM 36.3°F2.4°C 3.6°F-15.8°C 25% Calm Calm 0.6 mph1.0 kmh 29.45 in997.3 mb 0.00 in0.0 mm 0.00 in0.0 mm 0.04 in1.0 mm
07:35 AM 36.3°F2.4°C 4.5°F-15.3°C 26% Calm Calm -- 29.45 in997.3 mb 0.00 in0.0 mm 0.00 in0.0 mm 0.04 in1.0 mm
07:50 AM 36.5°F2.5°C 4.6°F-15.2°C 26% Calm Calm 1.4 mph2.3 kmh 29.45 in997.3 mb 0.00 in0.0 mm 0.00 in0.0 mm 0.04 in1.0 mm
08:05 AM 36.7°F2.6°C 5.6°F-14.7°C 27% Calm Calm 3.4 mph5.5 kmh 29.44 in997.0 mb 0.00 in0.0 mm 0.00 in0.0 mm 0.04 in1.0 mm
08:20 AM 37.0°F2.8°C 5.9°F-14.5°C 27% Calm Calm -- 29.44 in997.0 mb 0.01 in0.3 mm 0.05 in1.3 mm 0.05 in1.3 mm
08:35 AM 37.2°F2.9°C 6.9°F-13.9°C 28% Calm Calm -- 29.43 in996.6 mb 0.01 in0.3 mm 0.00 in0.0 mm 0.05 in1.3 mm
08:50 AM 37.6°F3.1°C 8.0°F-13.3°C 29% Calm Calm 2.0 mph3.2 kmh 29.42 in996.3 mb 0.01 in0.3 mm 0.00 in0.0 mm 0.05 in1.3 mm
09:05 AM 37.8°F3.2°C 8.1°F-13.3°C 29% Calm Calm 0.6 mph1.0 kmh 29.42 in996.3 mb 0.01 in0.3 mm 0.00 in0.0 mm 0.05 in1.3 mm
09:20 AM 38.3°F3.5°C 9.3°F-12.6°C 30% Calm Calm -- 29.41 in995.9 mb 0.01 in0.3 mm 0.00 in0.0 mm 0.05 in1.3 mm
09:35 AM 38.7°F3.7°C 9.7°F-12.4°C 30% Calm Calm -- 29.41 in995.9 mb 0.01 in0.3 mm 0.00 in0.0 mm 0.05 in1.3 mm
09:50 AM 39.2°F4.0°C 10.9°F-11.7°C 31% Calm Calm -- 29.40 in995.6 mb 0.01 in0.3 mm 0.00 in0.0 mm 0.05 in1.3 mm
10:05 AM 39.4°F4.1°C 11.0°F-11.7°C 31% Calm Calm -- 29.40 in995.6 mb 0.01 in0.3 mm 0.00 in0.0 mm 0.05 in1.3 mm
10:20 AM 39.7°F4.3°C 11.3°F-11.5°C 31% Calm Calm -- 29.39 in995.3 mb 0.00 in0.0 mm 0.00 in0.0 mm 0.05 in1.3 mm
10:35 AM 40.3°F4.6°C 12.5°F-10.8°C 32% Calm Calm 0.6 mph1.0 kmh 29.39 in995.3 mb 0.00 in0.0 mm 0.00 in0.0 mm 0.05 in1.3 mm
10:50 AM 41.2°F5.1°C 13.3°F-10.4°C 32% Calm Calm 0.6 mph1.0 kmh 29.39 in995.3 mb 0.01 in0.3 mm 0.05 in1.3 mm 0.06 in1.5 mm
11:05 AM 41.7°F5.4°C 14.5°F-9.7°C 33% Calm Calm -- 29.38 in994.9 mb 0.01 in0.3 mm 0.00 in0.0 mm 0.06 in1.5 mm
11:20 AM 42.6°F5.9°C 16.0°F-8.9°C 34% Calm Calm -- 29.37 in994.6 mb 0.00 in0.0 mm 0.00 in0.0 mm 0.06 in1.5 mm
11:35 AM 42.8°F6.0°C 16.8°F-8.4°C 35% Calm Calm -- 29.36 in994.2 mb 0.00 in0.0 mm 0.00 in0.0 mm 0.06 in1.5 mm
11:50 AM 43.2°F6.2°C 17.1°F-8.3°C 35% Calm Calm 1.4 mph2.3 kmh 29.36 in994.2 mb 0.00 in0.0 mm 0.00 in0.0 mm 0.06 in1.5 mm
12:05 PM 43.5°F6.4°C 17.5°F-8.1°C 35% Calm Calm 0.6 mph1.0 kmh 29.35 in993.9 mb 0.00 in0.0 mm 0.00 in0.0 mm 0.06 in1.5 mm
12:20 PM 43.9°F6.6°C 17.8°F-7.9°C 35% Calm Calm 1.4 mph2.3 kmh 29.34 in993.6 mb 0.00 in0.0 mm 0.00 in0.0 mm 0.06 in1.5 mm
12:35 PM 44.2°F6.8°C 18.7°F-7.4°C 36% Calm Calm 2.8 mph4.5 kmh 29.34 in993.6 mb 0.00 in0.0 mm 0.00 in0.0 mm 0.06 in1.5 mm
12:50 PM 44.4°F6.9°C 18.9°F-7.3°C 36% Calm Calm 2.0 mph3.2 kmh 29.33 in993.2 mb 0.00 in0.0 mm 0.00 in0.0 mm 0.06 in1.5 mm
01:05 PM 44.6°F7.0°C 19.1°F-7.2°C 36% Calm Calm 1.4 mph2.3 kmh 29.33 in993.2 mb 0.00 in0.0 mm 0.00 in0.0 mm 0.06 in1.5 mm
01:20 PM 44.6°F7.0°C 19.1°F-7.2°C 36% Calm Calm 3.4 mph5.5 kmh 29.33 in993.2 mb 0.00 in0.0 mm 0.00 in0.0 mm 0.06 in1.5 mm
01:35 PM 44.8°F7.1°C 19.2°F-7.1°C 36% Calm Calm 4.0 mph6.4 kmh 29.32 in992.9 mb 0.00 in0.0 mm 0.00 in0.0 mm 0.06 in1.5 mm
01:50 PM 45.0°F7.2°C 19.4°F-7.0°C 36% Calm Calm 1.4 mph2.3 kmh 29.32 in992.9 mb 0.00 in0.0 mm 0.00 in0.0 mm 0.06 in1.5 mm
02:05 PM 45.1°F7.3°C 20.2°F-6.6°C 37% 1.4 mph N2.3 kmh N 4.8 mph7.7 kmh 29.31 in992.6 mb 0.00 in0.0 mm 0.00 in0.0 mm 0.06 in1.5 mm
02:20 PM 45.1°F7.3°C 20.2°F-6.6°C 37% Calm Calm 2.0 mph3.2 kmh 29.31 in992.6 mb 0.00 in0.0 mm 0.00 in0.0 mm 0.06 in1.5 mm
02:35 PM 45.1°F7.3°C 20.2°F-6.6°C 37% Calm Calm -- 29.31 in992.6 mb 0.00 in0.0 mm 0.00 in0.0 mm 0.06 in1.5 mm
02:50 PM 45.3°F7.4°C 20.4°F-6.4°C 37% Calm Calm 2.0 mph3.2 kmh 29.31 in992.6 mb 0.00 in0.0 mm 0.00 in0.0 mm 0.06 in1.5 mm
03:05 PM 45.3°F7.4°C 20.4°F-6.4°C 37% Calm Calm 2.8 mph4.5 kmh 29.30 in992.2 mb 0.00 in0.0 mm 0.00 in0.0 mm 0.06 in1.5 mm
03:20 PM 45.3°F7.4°C 20.4°F-6.4°C 37% Calm Calm 0.6 mph1.0 kmh 29.30 in992.2 mb 0.00 in0.0 mm 0.00 in0.0 mm 0.06 in1.5 mm
03:35 PM 45.7°F7.6°C 20.7°F-6.3°C 37% Calm Calm -- 29.30 in992.2 mb 0.00 in0.0 mm 0.00 in0.0 mm 0.06 in1.5 mm
03:50 PM 45.3°F7.4°C 20.4°F-6.4°C 37% Calm Calm -- 29.30 in992.2 mb 0.00 in0.0 mm 0.00 in0.0 mm 0.06 in1.5 mm
04:05 PM 45.5°F7.5°C 20.5°F-6.4°C 37% Calm Calm -- 29.30 in992.2 mb 0.00 in0.0 mm 0.00 in0.0 mm 0.06 in1.5 mm
04:20 PM 45.5°F7.5°C 21.1°F-6.1°C 38% Calm Calm -- 29.30 in992.2 mb 0.00 in0.0 mm 0.00 in0.0 mm 0.06 in1.5 mm
04:35 PM 45.7°F7.6°C 21.3°F-5.9°C 38% Calm Calm -- 29.30 in992.2 mb 0.00 in0.0 mm 0.00 in0.0 mm 0.06 in1.5 mm
04:50 PM 45.7°F7.6°C 21.3°F-5.9°C 38% Calm Calm -- 29.29 in991.9 mb 0.00 in0.0 mm 0.00 in0.0 mm 0.06 in1.5 mm
05:05 PM 45.7°F7.6°C 21.9°F-5.6°C 39% Calm Calm 0.6 mph1.0 kmh 29.29 in991.9 mb 0.00 in0.0 mm 0.00 in0.0 mm 0.06 in1.5 mm
05:20 PM 45.9°F7.7°C 22.1°F-5.5°C 39% Calm Calm -- 29.28 in991.5 mb 0.00 in0.0 mm 0.00 in0.0 mm 0.06 in1.5 mm
05:35 PM 45.9°F7.7°C 22.1°F-5.5°C 39% Calm Calm -- 29.28 in991.5 mb 0.00 in0.0 mm 0.00 in0.0 mm 0.06 in1.5 mm
05:50 PM 46.0°F7.8°C 22.9°F-5.1°C 40% Calm Calm -- 29.27 in991.2 mb 0.00 in0.0 mm 0.00 in0.0 mm 0.06 in1.5 mm
06:05 PM 45.9°F7.7°C 22.7°F-5.2°C 40% Calm Calm -- 29.27 in991.2 mb 0.00 in0.0 mm 0.00 in0.0 mm 0.06 in1.5 mm
06:20 PM 46.0°F7.8°C 22.9°F-5.1°C 40% Calm Calm -- 29.26 in990.9 mb 0.00 in0.0 mm 0.00 in0.0 mm 0.06 in1.5 mm
06:35 PM 46.0°F7.8°C 22.9°F-5.1°C 40% Calm Calm -- 29.26 in990.9 mb 0.00 in0.0 mm 0.00 in0.0 mm 0.06 in1.5 mm
06:50 PM 46.2°F7.9°C 23.0°F-5.0°C 40% Calm Calm -- 29.25 in990.5 mb 0.00 in0.0 mm 0.00 in0.0 mm 0.06 in1.5 mm
07:05 PM 46.0°F7.8°C 22.9°F-5.1°C 40% Calm Calm -- 29.25 in990.5 mb 0.00 in0.0 mm 0.00 in0.0 mm 0.06 in1.5 mm
07:20 PM 46.2°F7.9°C 23.6°F-4.7°C 41% Calm Calm -- 29.24 in990.2 mb 0.00 in0.0 mm 0.00 in0.0 mm 0.06 in1.5 mm
07:35 PM 46.2°F7.9°C 23.6°F-4.7°C 41% Calm Calm -- 29.23 in989.8 mb 0.00 in0.0 mm 0.00 in0.0 mm 0.06 in1.5 mm
07:50 PM 46.2°F7.9°C 23.6°F-4.7°C 41% Calm Calm -- 29.24 in990.2 mb 0.00 in0.0 mm 0.00 in0.0 mm 0.06 in1.5 mm
08:05 PM 45.9°F7.7°C 23.3°F-4.8°C 41% Calm Calm -- 29.23 in989.8 mb 0.00 in0.0 mm 0.00 in0.0 mm 0.06 in1.5 mm
08:20 PM 46.0°F7.8°C 23.4°F-4.8°C 41% Calm Calm 0.6 mph1.0 kmh 29.21 in989.2 mb 0.00 in0.0 mm 0.00 in0.0 mm 0.06 in1.5 mm
08:35 PM 45.9°F7.7°C 23.3°F-4.8°C 41% Calm Calm -- 29.21 in989.2 mb 0.00 in0.0 mm 0.00 in0.0 mm 0.06 in1.5 mm
08:50 PM 45.7°F7.6°C 23.1°F-4.9°C 41% Calm Calm 1.4 mph2.3 kmh 29.21 in989.2 mb 0.00 in0.0 mm 0.00 in0.0 mm 0.06 in1.5 mm
09:05 PM 45.9°F7.7°C 23.9°F-4.5°C 42% Calm Calm 2.8 mph4.5 kmh 29.20 in988.8 mb 0.00 in0.0 mm 0.00 in0.0 mm 0.06 in1.5 mm
09:20 PM 46.0°F7.8°C 24.0°F-4.4°C 42% Calm Calm -- 29.20 in988.8 mb 0.01 in0.3 mm 0.05 in1.3 mm 0.07 in1.8 mm
09:35 PM 45.9°F7.7°C 23.9°F-4.5°C 42% Calm Calm 2.0 mph3.2 kmh 29.19 in988.5 mb 0.01 in0.3 mm 0.00 in0.0 mm 0.07 in1.8 mm
09:50 PM 45.9°F7.7°C 23.9°F-4.5°C 42% Calm Calm -- 29.18 in988.1 mb 0.01 in0.3 mm 0.00 in0.0 mm 0.07 in1.8 mm
10:05 PM 46.0°F7.8°C 24.0°F-4.4°C 42% Calm Calm 0.6 mph1.0 kmh 29.18 in988.1 mb 0.01 in0.3 mm 0.00 in0.0 mm 0.07 in1.8 mm
10:20 PM 45.9°F7.7°C 23.9°F-4.5°C 42% Calm Calm -- 29.17 in987.8 mb 0.01 in0.3 mm 0.00 in0.0 mm 0.07 in1.8 mm
10:35 PM 45.9°F7.7°C 23.9°F-4.5°C 42% Calm Calm 3.4 mph5.5 kmh 29.17 in987.8 mb 0.01 in0.3 mm 0.00 in0.0 mm 0.07 in1.8 mm
10:50 PM 46.0°F7.8°C 24.6°F-4.1°C 43% Calm Calm 2.0 mph3.2 kmh 29.16 in987.5 mb 0.01 in0.3 mm 0.00 in0.0 mm 0.07 in1.8 mm
11:05 PM 46.0°F7.8°C 24.6°F-4.1°C 43% Calm Calm -- 29.16 in987.5 mb 0.01 in0.3 mm 0.00 in0.0 mm 0.07 in1.8 mm
11:20 PM 46.0°F7.8°C 24.6°F-4.1°C 43% 0.6 mph N1.0 kmh N 5.4 mph8.7 kmh 29.15 in987.1 mb 0.00 in0.0 mm 0.00 in0.0 mm 0.07 in1.8 mm
11:35 PM 46.0°F7.8°C 24.6°F-4.1°C 43% Calm Calm -- 29.14 in986.8 mb 0.01 in0.3 mm 0.05 in1.3 mm 0.09 in2.3 mm
11:50 PM 45.9°F7.7°C 24.4°F-4.2°C 43% Calm Calm 0.6 mph1.0 kmh 29.14 in986.8 mb 0.01 in0.3 mm 0.00 in0.0 mm 0.09 in2.3 mm